createdAt,value
2022-08-17T00:00:11.029Z,97270.75
2022-08-17T00:03:02.753Z,97278.41
2022-08-17T00:05:32.197Z,97270.75
2022-08-17T00:07:59.850Z,97269.91
2022-08-17T00:10:27.705Z,97272.38
2022-08-17T00:12:56.576Z,97272.94
2022-08-17T00:15:25.103Z,97265.31
2022-08-17T00:17:53.346Z,97269.41
2022-08-17T00:20:30.376Z,97271.31
2022-08-17T00:23:08.428Z,97280.00
2022-08-17T00:25:36.227Z,97278.66
2022-08-17T00:28:04.236Z,97281.13
2022-08-17T00:30:51.316Z,97273.19
2022-08-17T00:33:22.427Z,97275.41
2022-08-17T00:35:51.798Z,97277.03
2022-08-17T00:38:20.221Z,97274.56
2022-08-17T00:40:50.651Z,97271.31
2022-08-17T00:43:23.837Z,97272.66
2022-08-17T00:45:51.389Z,97270.47
2022-08-17T00:48:29.265Z,97261.78
2022-08-17T00:51:06.439Z,97257.66
2022-08-17T00:53:37.413Z,97253.84
2022-08-17T00:56:09.814Z,97270.47
2022-08-17T00:58:38.367Z,97256.59
2022-08-17T01:01:08.068Z,97259.56
2022-08-17T01:03:36.186Z,97251.94
2022-08-17T01:06:07.209Z,97261.75
2022-08-17T01:08:36.808Z,97260.09
2022-08-17T01:11:06.329Z,97264.19
2022-08-17T01:13:41.189Z,97263.59
2022-08-17T01:16:16.951Z,97253.00
2022-08-17T01:18:46.701Z,97260.84
2022-08-17T01:21:21.851Z,97252.97
2022-08-17T01:23:50.827Z,97258.69
2022-08-17T01:26:19.111Z,97252.97
2022-08-17T01:28:53.727Z,97251.31
2022-08-17T01:31:25.065Z,97256.22
2022-08-17T01:33:52.961Z,97254.59
2022-08-17T01:36:20.576Z,97258.38
2022-08-17T01:38:48.381Z,97265.19
2022-08-17T01:41:18.011Z,97252.38
2022-08-17T01:43:48.874Z,97260.03
2022-08-17T01:46:21.185Z,97254.84
2022-08-17T01:48:51.093Z,97254.28
2022-08-17T01:51:19.938Z,97260.00
2022-08-17T01:53:50.846Z,97259.44
2022-08-17T01:56:23.383Z,97254.53
2022-08-17T01:58:52.401Z,97262.97
2022-08-17T02:01:23.171Z,97258.88
2022-08-17T02:03:56.296Z,97256.44
2022-08-17T02:06:29.255Z,97252.06
2022-08-17T02:09:02.554Z,97241.72
2022-08-17T02:11:34.572Z,97242.81
2022-08-17T02:14:04.120Z,97247.69
2022-08-17T02:16:37.853Z,97241.72
2022-08-17T02:19:08.447Z,97235.97
2022-08-17T02:21:36.527Z,97245.22
2022-08-17T02:24:05.578Z,97241.16
2022-08-17T02:26:34.699Z,97236.78
2022-08-17T02:29:04.125Z,97239.75
2022-08-17T02:31:32.002Z,97232.13
2022-08-17T02:34:03.910Z,97236.22
2022-08-17T02:36:33.935Z,97229.94
2022-08-17T02:39:02.198Z,97232.38
2022-08-17T02:41:29.772Z,97233.47
2022-08-17T02:43:58.855Z,97225.56
2022-08-17T02:46:26.921Z,97226.91
2022-08-17T02:48:54.570Z,97222.84
2022-08-17T02:51:22.153Z,97225.00
2022-08-17T02:53:49.814Z,97220.38
2022-08-17T02:56:17.490Z,97219.81
2022-08-17T02:58:46.368Z,97222.00
2022-08-17T03:01:15.808Z,97225.78
2022-08-17T03:03:43.551Z,97230.69
2022-08-17T03:06:11.395Z,97230.63
2022-08-17T03:08:38.963Z,97226.81
2022-08-17T03:11:06.618Z,97231.16
2022-08-17T03:13:34.208Z,97223.25
2022-08-17T03:16:01.829Z,97226.25
2022-08-17T03:18:30.753Z,97225.44
2022-08-17T03:21:04.241Z,97217.00
2022-08-17T03:23:32.547Z,97213.97
2022-08-17T03:26:01.567Z,97211.53
2022-08-17T03:28:29.845Z,97214.50
2022-08-17T03:30:57.534Z,97216.66
2022-08-17T03:33:25.100Z,97227.53
2022-08-17T03:35:54.072Z,97226.16
2022-08-17T03:38:21.995Z,97216.63
2022-08-17T03:40:56.488Z,97228.59
2022-08-17T03:43:29.463Z,97226.16
2022-08-17T03:46:27.689Z,97215.53
2022-08-17T03:49:17.579Z,97213.34
2022-08-17T03:52:04.006Z,97222.56
2022-08-17T03:54:49.713Z,97217.66
2022-08-17T03:57:17.430Z,97218.75
2022-08-17T03:59:45.369Z,97226.06
2022-08-17T04:02:18.531Z,97238.84
2022-08-17T04:04:46.753Z,97236.13
2022-08-17T04:07:15.687Z,97250.81
2022-08-17T04:09:44.582Z,97241.84
2022-08-17T04:12:13.500Z,97254.31
2022-08-17T04:14:53.678Z,97250.78
2022-08-17T04:17:23.540Z,97240.97
2022-08-17T04:19:51.319Z,97247.47
2022-08-17T04:22:32.401Z,97252.91
2022-08-17T04:25:04.145Z,97258.34
2022-08-17T04:27:31.750Z,97260.53
2022-08-17T04:29:59.690Z,97262.41
2022-08-17T04:33:04.150Z,97257.22
2022-08-17T04:35:19.579Z,97258.06
2022-08-17T04:37:48.601Z,97251.56
2022-08-17T04:40:33.766Z,97260.00
2022-08-17T04:43:02.934Z,97252.91
2022-08-17T04:45:32.341Z,97261.63
2022-08-17T04:48:00.894Z,97261.09
2022-08-17T04:50:28.743Z,97261.69
2022-08-17T04:52:57.873Z,97264.69
2022-08-17T04:55:25.843Z,97264.16
2022-08-17T04:57:54.011Z,97267.16
2022-08-17T05:00:22.406Z,97271.25
2022-08-17T05:02:52.495Z,97278.66
2022-08-17T05:05:21.219Z,97282.75
2022-08-17T05:07:49.032Z,97286.88
2022-08-17T05:10:18.165Z,97275.75
2022-08-17T05:12:45.719Z,97271.94
2022-08-17T05:15:15.939Z,97282.34
2022-08-17T05:17:43.665Z,97276.41
2022-08-17T05:20:12.371Z,97276.75
2022-08-17T05:22:50.159Z,97287.38
2022-08-17T05:25:24.939Z,97286.56
2022-08-17T05:27:54.150Z,97277.75
2022-08-17T05:30:23.023Z,97281.47
2022-08-17T05:32:55.435Z,97276.06
2022-08-17T05:35:23.752Z,97271.41
2022-08-17T05:37:51.516Z,97276.63
2022-08-17T05:40:24.273Z,97283.00
2022-08-17T05:42:51.987Z,97284.97
2022-08-17T05:45:54.916Z,97277.38
2022-08-17T05:48:10.273Z,97285.50
2022-08-17T05:50:49.647Z,97280.72
2022-08-17T05:53:23.875Z,97271.13
2022-08-17T05:56:03.827Z,97276.66
2022-08-17T05:58:41.928Z,97279.75
2022-08-17T06:01:16.571Z,97283.81
2022-08-17T06:03:50.260Z,97281.91
2022-08-17T06:06:32.709Z,97273.16
2022-08-17T06:09:14.459Z,97276.41
2022-08-17T06:11:53.646Z,97275.84
2022-08-17T06:14:37.470Z,97267.69
2022-08-17T06:17:10.040Z,97266.84
2022-08-17T06:19:43.213Z,97265.50
2022-08-17T06:22:14.430Z,97274.81
2022-08-17T06:24:46.827Z,97275.63
2022-08-17T06:27:24.393Z,97274.25
2022-08-17T06:29:58.412Z,97280.53
2022-08-17T06:32:26.577Z,97277.53
2022-08-17T06:34:55.374Z,97281.91
2022-08-17T06:37:42.003Z,97279.72
2022-08-17T06:40:29.202Z,97282.47
2022-08-17T06:43:12.440Z,97286.81
2022-08-17T06:45:49.557Z,97280.56
2022-08-17T06:48:25.872Z,97280.03
2022-08-17T06:51:00.087Z,97283.03
2022-08-17T06:53:32.984Z,97288.47
2022-08-17T06:56:05.967Z,97301.28
2022-08-17T06:58:37.425Z,97293.13
2022-08-17T07:01:12.990Z,97292.28
2022-08-17T07:03:47.693Z,97289.00
2022-08-17T07:06:18.453Z,97287.09
2022-08-17T07:08:54.082Z,97296.38
2022-08-17T07:11:28.357Z,97292.53
2022-08-17T07:14:08.425Z,97290.88
2022-08-17T07:16:42.068Z,97301.22
2022-08-17T07:19:10.919Z,97294.97
2022-08-17T07:21:54.940Z,97304.78
2022-08-17T07:24:37.321Z,97318.66
2022-08-17T07:27:17.035Z,97317.00
2022-08-17T07:29:51.227Z,97326.50
2022-08-17T07:32:24.064Z,97313.94
2022-08-17T07:35:16.245Z,97315.00
2022-08-17T07:37:53.059Z,97314.72
2022-08-17T07:40:28.109Z,97313.53
2022-08-17T07:43:05.079Z,97312.72
2022-08-17T07:45:54.115Z,97315.69
2022-08-17T07:48:26.949Z,97313.44
2022-08-17T07:50:54.668Z,97313.09
2022-08-17T07:53:24.542Z,97316.91
2022-08-17T07:55:53.888Z,97322.34
2022-08-17T07:58:23.862Z,97317.84
2022-08-17T08:01:07.940Z,97330.44
2022-08-17T08:03:42.572Z,97321.63
2022-08-17T08:06:21.757Z,97328.03
2022-08-17T08:08:53.412Z,97326.84
2022-08-17T08:11:31.059Z,97316.59
2022-08-17T08:14:21.704Z,97322.09
2022-08-17T08:17:03.233Z,97324.75
2022-08-17T08:19:32.456Z,97324.38
2022-08-17T08:22:06.871Z,97320.31
2022-08-17T08:24:50.226Z,97313.38
2022-08-17T08:27:27.984Z,97305.50
2022-08-17T08:30:05.219Z,97298.59
2022-08-17T08:32:50.344Z,97307.03
2022-08-17T08:35:26.821Z,97307.19
2022-08-17T08:38:01.517Z,97312.31
2022-08-17T08:40:39.453Z,97312.78
2022-08-17T08:43:18.302Z,97302.88
2022-08-17T08:45:56.637Z,97302.47
2022-08-17T08:48:55.823Z,97305.09
2022-08-17T08:51:37.577Z,97304.84
2022-08-17T08:54:15.501Z,97308.25
2022-08-17T08:57:11.987Z,97299.44
2022-08-17T08:59:44.577Z,97302.00
2022-08-17T09:02:34.912Z,97305.16
2022-08-17T09:05:18.502Z,97289.94
2022-08-17T09:07:57.396Z,97297.44
2022-08-17T09:10:29.371Z,97302.38
2022-08-17T09:13:09.893Z,97307.34
2022-08-17T09:15:45.020Z,97298.94
2022-08-17T09:19:00.795Z,97294.97
2022-08-17T09:21:18.251Z,97293.56
2022-08-17T09:23:59.806Z,97297.31
2022-08-17T09:26:32.615Z,97284.78
2022-08-17T09:29:04.723Z,97294.22
2022-08-17T09:31:35.439Z,97294.03
2022-08-17T09:34:33.293Z,97297.56
2022-08-17T09:37:12.188Z,97281.97
2022-08-17T09:39:46.281Z,97288.69
2022-08-17T09:42:22.684Z,97286.16
2022-08-17T09:44:57.426Z,97284.41
2022-08-17T09:47:31.930Z,97282.25
2022-08-17T09:50:07.036Z,97285.63
2022-08-17T09:52:36.593Z,97287.69
2022-08-17T09:55:07.474Z,97291.63
2022-08-17T09:57:52.926Z,97294.09
2022-08-17T10:00:25.034Z,97287.06
2022-08-17T10:03:04.744Z,97284.41
2022-08-17T10:05:37.728Z,97275.38
2022-08-17T10:08:15.153Z,97264.31
2022-08-17T10:10:56.505Z,97272.22
2022-08-17T10:13:35.481Z,97272.69
2022-08-17T10:16:15.130Z,97273.63
2022-08-17T10:18:52.995Z,97279.66
2022-08-17T10:21:40.642Z,97265.78
2022-08-17T10:24:32.689Z,97264.84
2022-08-17T10:27:02.918Z,97262.34
2022-08-17T10:29:49.036Z,97263.59
2022-08-17T10:32:26.476Z,97264.72
2022-08-17T10:35:07.490Z,97267.16
2022-08-17T10:37:49.212Z,97272.28
2022-08-17T10:40:28.447Z,97266.66
2022-08-17T10:43:00.046Z,97265.50
2022-08-17T10:45:33.152Z,97260.88
2022-08-17T10:48:06.067Z,97277.28
2022-08-17T10:50:50.336Z,97274.22
2022-08-17T10:53:52.709Z,97277.94
2022-08-17T10:56:43.091Z,97285.41
2022-08-17T10:59:10.778Z,97290.16
2022-08-17T11:02:03.495Z,97291.63
2022-08-17T11:04:47.782Z,97276.22
2022-08-17T11:07:27.909Z,97267.25
2022-08-17T11:10:19.765Z,97261.25
2022-08-17T11:12:57.418Z,97264.84
2022-08-17T11:15:45.823Z,97269.94
2022-08-17T11:18:30.891Z,97270.72
2022-08-17T11:21:18.564Z,97266.81
2022-08-17T11:24:01.787Z,97265.69
2022-08-17T11:26:32.506Z,97266.69
2022-08-17T11:29:05.242Z,97273.81
2022-08-17T11:31:39.172Z,97266.84
2022-08-17T11:34:15.221Z,97277.72
2022-08-17T11:37:01.499Z,97272.66
2022-08-17T11:40:11.913Z,97275.63
2022-08-17T11:43:13.499Z,97278.69
2022-08-17T11:45:58.492Z,97277.38
2022-08-17T11:48:54.011Z,97271.97
2022-08-17T11:51:35.789Z,97277.53
2022-08-17T11:54:31.878Z,97276.72
2022-08-17T11:56:59.266Z,97269.41
2022-08-17T11:59:55.788Z,97270.81
2022-08-17T12:02:35.084Z,97264.53
2022-08-17T12:05:26.117Z,97268.13
2022-08-17T12:08:08.805Z,97267.09
2022-08-17T12:10:41.803Z,97267.72
2022-08-17T12:13:15.804Z,97261.25
2022-08-17T12:15:49.666Z,97260.59
2022-08-17T12:18:24.452Z,97259.69
2022-08-17T12:21:19.614Z,97263.25
2022-08-17T12:23:56.917Z,97255.31
2022-08-17T12:26:30.307Z,97256.44
2022-08-17T12:29:01.888Z,97260.19
2022-08-17T12:31:33.788Z,97268.28
2022-08-17T12:34:04.058Z,97258.66
2022-08-17T12:36:33.274Z,97258.66
2022-08-17T12:39:13.921Z,97258.06
2022-08-17T12:41:44.505Z,97252.38
2022-08-17T12:44:15.162Z,97260.41
2022-08-17T12:46:49.549Z,97258.66
2022-08-17T12:49:29.924Z,97250.59
2022-08-17T12:52:12.341Z,97253.53
2022-08-17T12:54:46.940Z,97255.78
2022-08-17T12:57:18.130Z,97259.03
2022-08-17T12:59:52.986Z,97259.19
2022-08-17T13:02:29.087Z,97261.91
2022-08-17T13:05:01.334Z,97263.19
2022-08-17T13:07:35.405Z,97265.66
2022-08-17T13:10:04.367Z,97262.59
2022-08-17T13:12:35.093Z,97264.06
2022-08-17T13:15:03.708Z,97263.53
2022-08-17T13:17:36.473Z,97264.25
2022-08-17T13:20:14.680Z,97268.13
2022-08-17T13:22:44.416Z,97259.19
2022-08-17T13:25:17.712Z,97262.78
2022-08-17T13:27:54.776Z,97261.56
2022-08-17T13:30:28.032Z,97264.19
2022-08-17T13:32:58.016Z,97259.31
2022-08-17T13:35:47.665Z,97261.91
2022-08-17T13:38:36.528Z,97264.28
2022-08-17T13:41:06.989Z,97259.59
2022-08-17T13:43:40.234Z,97258.25
2022-08-17T13:46:11.464Z,97250.81
2022-08-17T13:48:39.520Z,97251.97
2022-08-17T13:51:25.947Z,97256.25
2022-08-17T13:54:01.435Z,97247.31
2022-08-17T13:56:39.935Z,97240.00
2022-08-17T13:59:12.354Z,97228.78
2022-08-17T14:01:42.481Z,97235.94
2022-08-17T14:04:12.977Z,97230.78
2022-08-17T14:06:53.111Z,97235.28
2022-08-17T14:09:25.679Z,97237.63
2022-08-17T14:11:55.105Z,97239.19
2022-08-17T14:14:23.773Z,97235.66
2022-08-17T14:16:52.137Z,97244.59
2022-08-17T14:19:22.013Z,97240.88
2022-08-17T14:21:56.676Z,97236.47
2022-08-17T14:24:28.535Z,97244.44
2022-08-17T14:26:57.798Z,97238.09
2022-08-17T14:29:28.899Z,97246.38
2022-08-17T14:31:58.204Z,97252.38
2022-08-17T14:34:26.639Z,97250.28
2022-08-17T14:36:56.475Z,97254.81
2022-08-17T14:39:24.506Z,97255.13
2022-08-17T14:41:53.020Z,97252.16
2022-08-17T14:44:20.992Z,97233.81
2022-08-17T14:46:50.511Z,97239.34
2022-08-17T14:49:20.702Z,97234.97
2022-08-17T14:51:48.874Z,97243.28
2022-08-17T14:54:32.965Z,97234.25
2022-08-17T14:57:23.811Z,97246.47
2022-08-17T14:59:54.842Z,97250.84
2022-08-17T15:02:29.477Z,97239.31
2022-08-17T15:05:00.342Z,97236.59
2022-08-17T15:07:30.486Z,97236.56
2022-08-17T15:10:01.616Z,97247.84
2022-08-17T15:12:34.568Z,97233.22
2022-08-17T15:15:04.674Z,97231.31
2022-08-17T15:17:43.667Z,97236.75
2022-08-17T15:20:15.753Z,97240.34
2022-08-17T15:22:45.101Z,97244.31
2022-08-17T15:25:14.745Z,97231.19
2022-08-17T15:27:42.735Z,97221.81
2022-08-17T15:30:11.792Z,97229.44
2022-08-17T15:32:45.844Z,97227.75
2022-08-17T15:35:27.868Z,97227.75
2022-08-17T15:37:58.098Z,97226.56
2022-08-17T15:40:27.232Z,97230.41
2022-08-17T15:42:55.063Z,97232.38
2022-08-17T15:45:26.629Z,97233.56
2022-08-17T15:47:54.258Z,97240.94
2022-08-17T15:50:22.008Z,97235.59
2022-08-17T15:52:56.039Z,97239.41
2022-08-17T15:55:24.385Z,97235.47
2022-08-17T15:57:53.598Z,97232.09
2022-08-17T16:00:23.629Z,97242.34
2022-08-17T16:03:46.298Z,97229.66
2022-08-17T16:05:40.698Z,97231.28
2022-08-17T16:08:10.995Z,97245.09
2022-08-17T16:10:38.968Z,97246.06
2022-08-17T16:13:17.911Z,97238.06
2022-08-17T16:15:51.053Z,97241.94
2022-08-17T16:18:30.971Z,97246.66
2022-08-17T16:21:19.212Z,97246.56
2022-08-17T16:23:47.364Z,97237.75
2022-08-17T16:26:14.959Z,97242.63
2022-08-17T16:28:43.993Z,97241.38
2022-08-17T16:31:12.161Z,97242.97
2022-08-17T16:33:40.339Z,97236.94
2022-08-17T16:36:08.918Z,97236.19
2022-08-17T16:38:38.366Z,97234.94
2022-08-17T16:41:06.809Z,97236.56
2022-08-17T16:43:35.505Z,97235.47
2022-08-17T16:46:04.738Z,97226.91
2022-08-17T16:48:32.373Z,97220.41
2022-08-17T16:51:04.461Z,97221.03
2022-08-17T16:53:32.802Z,97214.38
2022-08-17T16:56:00.368Z,97215.03
2022-08-17T16:58:28.120Z,97221.06
2022-08-17T17:00:59.584Z,97208.78
2022-08-17T17:03:31.148Z,97206.28
2022-08-17T17:06:07.214Z,97209.97
2022-08-17T17:08:42.051Z,97202.34
2022-08-17T17:11:15.441Z,97198.16
2022-08-17T17:13:48.001Z,97201.19
2022-08-17T17:16:21.591Z,97200.06
2022-08-17T17:19:09.343Z,97195.97
2022-08-17T17:21:43.434Z,97198.72
2022-08-17T17:24:16.313Z,97201.00
2022-08-17T17:27:09.179Z,97198.56
2022-08-17T17:29:48.995Z,97196.63
2022-08-17T17:32:22.902Z,97195.56
2022-08-17T17:35:02.767Z,97190.38
2022-08-17T17:37:35.127Z,97184.06
2022-08-17T17:40:07.711Z,97181.13
2022-08-17T17:42:35.772Z,97190.00
2022-08-17T17:45:16.880Z,97189.50
2022-08-17T17:47:45.774Z,97188.00
2022-08-17T17:50:16.920Z,97185.06
2022-08-17T17:52:53.313Z,97181.41
2022-08-17T17:55:34.482Z,97180.63
2022-08-17T17:58:14.418Z,97185.31
2022-08-17T18:00:50.214Z,97187.97
2022-08-17T18:03:36.961Z,97177.06
2022-08-17T18:06:19.028Z,97184.31
2022-08-17T18:09:10.350Z,97182.00
2022-08-17T18:11:54.671Z,97181.63
2022-08-17T18:14:38.266Z,97172.47
2022-08-17T18:17:07.575Z,97173.09
2022-08-17T18:19:35.238Z,97175.97
2022-08-17T18:22:12.974Z,97176.78
2022-08-17T18:24:45.083Z,97181.25
2022-08-17T18:27:23.190Z,97166.81
2022-08-17T18:29:52.927Z,97164.16
2022-08-17T18:32:33.442Z,97172.63
2022-08-17T18:35:27.807Z,97167.53
2022-08-17T18:37:58.692Z,97168.94
2022-08-17T18:40:31.610Z,97174.06
2022-08-17T18:43:03.738Z,97180.16
2022-08-17T18:45:34.382Z,97181.91
2022-08-17T18:48:04.047Z,97184.72
2022-08-17T18:50:39.612Z,97182.09
2022-08-17T18:53:26.775Z,97182.50
2022-08-17T18:56:22.393Z,97188.41
2022-08-17T18:59:09.713Z,97188.78
2022-08-17T19:01:52.463Z,97195.69
2022-08-17T19:04:36.683Z,97194.69
2022-08-17T19:07:24.401Z,97194.75
2022-08-17T19:09:56.999Z,97191.56
2022-08-17T19:12:32.095Z,97190.25
2022-08-17T19:15:01.451Z,97195.00
2022-08-17T19:17:37.293Z,97189.31
2022-08-17T19:20:13.779Z,97197.63
2022-08-17T19:22:52.334Z,97191.13
2022-08-17T19:25:27.117Z,97185.94
2022-08-17T19:27:58.677Z,97189.59
2022-08-17T19:30:27.826Z,97191.59
2022-08-17T19:32:57.747Z,97194.94
2022-08-17T19:35:31.679Z,97192.59
2022-08-17T19:38:12.862Z,97190.75
2022-08-17T19:40:53.941Z,97192.13
2022-08-17T19:43:30.616Z,97194.00
2022-08-17T19:46:05.908Z,97177.03
2022-08-17T19:48:48.740Z,97175.31
2022-08-17T19:51:21.633Z,97169.03
2022-08-17T19:54:05.369Z,97166.28
2022-08-17T19:56:43.908Z,97161.97
2022-08-17T19:59:17.172Z,97167.34
2022-08-17T20:01:48.536Z,97166.31
2022-08-17T20:04:33.134Z,97170.47
2022-08-17T20:07:04.472Z,97170.78
2022-08-17T20:09:38.121Z,97176.81
2022-08-17T20:12:10.742Z,97173.84
2022-08-17T20:14:53.327Z,97180.75
2022-08-17T20:17:24.741Z,97184.59
2022-08-17T20:20:02.528Z,97182.44
2022-08-17T20:22:49.766Z,97173.19
2022-08-17T20:25:30.528Z,97176.53
2022-08-17T20:28:06.352Z,97182.31
2022-08-17T20:30:38.346Z,97188.38
2022-08-17T20:33:12.504Z,97193.66
2022-08-17T20:36:00.272Z,97204.59
2022-08-17T20:38:41.484Z,97198.91
2022-08-17T20:41:15.462Z,97207.69
2022-08-17T20:43:51.332Z,97207.47
2022-08-17T20:46:43.235Z,97206.97
2022-08-17T20:49:26.024Z,97209.69
2022-08-17T20:52:01.518Z,97209.47
2022-08-17T20:54:44.357Z,97214.41
2022-08-17T20:57:49.703Z,97222.41
2022-08-17T21:00:45.531Z,97228.19
2022-08-17T21:03:52.926Z,97224.13
2022-08-17T21:06:23.875Z,97209.91
2022-08-17T21:08:57.646Z,97208.06
2022-08-17T21:12:02.306Z,97201.16
2022-08-17T21:14:56.172Z,97204.56
2022-08-17T21:17:40.020Z,97206.78
2022-08-17T21:20:24.178Z,97207.13
2022-08-17T21:23:03.562Z,97205.44
2022-08-17T21:25:55.942Z,97201.38
2022-08-17T21:28:34.179Z,97206.59
2022-08-17T21:31:08.693Z,97218.06
2022-08-17T21:33:38.984Z,97212.91
2022-08-17T21:36:24.615Z,97210.19
2022-08-17T21:39:08.828Z,97199.28
2022-08-17T21:41:47.787Z,97218.50
2022-08-17T21:44:22.575Z,97219.00
2022-08-17T21:46:53.650Z,97222.81
2022-08-17T21:49:27.172Z,97232.19
2022-08-17T21:51:57.345Z,97229.75
2022-08-17T21:54:31.330Z,97223.25
2022-08-17T21:57:01.832Z,97226.78
2022-08-17T21:59:34.685Z,97222.66
2022-08-17T22:02:06.411Z,97230.34
2022-08-17T22:04:36.290Z,97225.94
2022-08-17T22:07:06.352Z,97244.53
2022-08-17T22:09:36.336Z,97236.09
2022-08-17T22:12:09.075Z,97229.53
2022-08-17T22:14:52.711Z,97223.81
2022-08-17T22:17:25.372Z,97225.44
2022-08-17T22:19:56.244Z,97234.81
2022-08-17T22:22:34.199Z,97227.44
2022-08-17T22:25:03.013Z,97219.72
2022-08-17T22:27:47.035Z,97235.41
2022-08-17T22:30:20.083Z,97236.53
2022-08-17T22:32:49.827Z,97232.25
2022-08-17T22:35:33.147Z,97235.03
2022-08-17T22:38:32.115Z,97234.56
2022-08-17T22:41:30.142Z,97238.38
2022-08-17T22:43:59.437Z,97230.75
2022-08-17T22:46:28.316Z,97231.03
2022-08-17T22:49:00.301Z,97243.84
2022-08-17T22:51:31.887Z,97237.22
2022-08-17T22:54:21.889Z,97226.03
2022-08-17T22:57:11.801Z,97234.88
2022-08-17T22:59:46.915Z,97231.28
2022-08-17T23:02:26.112Z,97227.16
2022-08-17T23:05:16.849Z,97229.56
2022-08-17T23:07:46.479Z,97231.75
2022-08-17T23:10:15.601Z,97234.44
2022-08-17T23:12:43.365Z,97232.53
2022-08-17T23:15:14.231Z,97235.53
2022-08-17T23:17:42.668Z,97238.03
2022-08-17T23:20:17.564Z,97232.69
2022-08-17T23:22:51.776Z,97235.66
2022-08-17T23:25:25.856Z,97232.38
2022-08-17T23:27:54.484Z,97242.44
2022-08-17T23:30:27.186Z,97246.56
2022-08-17T23:32:56.583Z,97244.13
2022-08-17T23:35:39.683Z,97240.66
2022-08-17T23:38:09.119Z,97241.50
2022-08-17T23:40:37.739Z,97240.06
2022-08-17T23:43:17.615Z,97231.28
2022-08-17T23:45:52.612Z,97231.38
2022-08-17T23:48:34.961Z,97230.31
2022-08-17T23:51:09.418Z,97239.91
2022-08-17T23:53:40.203Z,97234.63
2022-08-17T23:56:11.198Z,97237.31
2022-08-17T23:58:43.062Z,97263.03
